sensor_id;sensor_type;location;lat;lon;timestamp;P1;durP1;ratioP1;P2;durP2;ratioP2
17173;SDS011;8702;48.130;-1.696;2024-02-23T00:00:31;14.52;;;3.30;;
17173;SDS011;8702;48.130;-1.696;2024-02-23T00:02:58;12.10;;;3.50;;
17173;SDS011;8702;48.130;-1.696;2024-02-23T00:05:25;11.93;;;3.15;;
17173;SDS011;8702;48.130;-1.696;2024-02-23T00:07:52;15.40;;;2.88;;
17173;SDS011;8702;48.130;-1.696;2024-02-23T00:10:19;10.30;;;2.80;;
17173;SDS011;8702;48.130;-1.696;2024-02-23T00:12:47;11.07;;;2.63;;
17173;SDS011;8702;48.130;-1.696;2024-02-23T00:15:14;10.70;;;2.88;;
17173;SDS011;8702;48.130;-1.696;2024-02-23T00:17:42;15.52;;;3.05;;
17173;SDS011;8702;48.130;-1.696;2024-02-23T00:20:10;10.60;;;2.90;;
17173;SDS011;8702;48.130;-1.696;2024-02-23T00:22:37;13.30;;;3.00;;
17173;SDS011;8702;48.130;-1.696;2024-02-23T00:25:05;12.85;;;3.08;;
17173;SDS011;8702;48.130;-1.696;2024-02-23T00:27:32;12.23;;;2.90;;
17173;SDS011;8702;48.130;-1.696;2024-02-23T00:30:00;9.52;;;2.90;;
17173;SDS011;8702;48.130;-1.696;2024-02-23T00:32:27;10.73;;;2.90;;
17173;SDS011;8702;48.130;-1.696;2024-02-23T00:34:56;13.38;;;3.28;;
17173;SDS011;8702;48.130;-1.696;2024-02-23T00:37:24;14.23;;;2.93;;
17173;SDS011;8702;48.130;-1.696;2024-02-23T00:39:51;11.82;;;3.38;;
17173;SDS011;8702;48.130;-1.696;2024-02-23T00:42:18;12.75;;;3.28;;
17173;SDS011;8702;48.130;-1.696;2024-02-23T00:44:47;10.65;;;2.95;;
17173;SDS011;8702;48.130;-1.696;2024-02-23T00:47:14;11.53;;;3.00;;
17173;SDS011;8702;48.130;-1.696;2024-02-23T00:49:41;10.10;;;2.88;;
17173;SDS011;8702;48.130;-1.696;2024-02-23T00:52:09;10.98;;;2.90;;
17173;SDS011;8702;48.130;-1.696;2024-02-23T00:54:36;12.77;;;3.17;;
17173;SDS011;8702;48.130;-1.696;2024-02-23T00:57:04;12.35;;;3.20;;
17173;SDS011;8702;48.130;-1.696;2024-02-23T00:59:31;12.00;;;3.05;;
17173;SDS011;8702;48.130;-1.696;2024-02-23T01:01:58;11.77;;;3.05;;
17173;SDS011;8702;48.130;-1.696;2024-02-23T01:04:25;11.93;;;2.70;;
17173;SDS011;8702;48.130;-1.696;2024-02-23T01:06:52;9.20;;;2.78;;
17173;SDS011;8702;48.130;-1.696;2024-02-23T01:09:21;11.38;;;3.30;;
17173;SDS011;8702;48.130;-1.696;2024-02-23T01:11:48;12.02;;;3.13;;
17173;SDS011;8702;48.130;-1.696;2024-02-23T01:14:15;12.63;;;2.90;;
17173;SDS011;8702;48.130;-1.696;2024-02-23T01:16:42;10.52;;;2.63;;
17173;SDS011;8702;48.130;-1.696;2024-02-23T01:19:09;10.52;;;2.60;;
17173;SDS011;8702;48.130;-1.696;2024-02-23T01:21:36;11.60;;;3.10;;
17173;SDS011;8702;48.130;-1.696;2024-02-23T01:24:04;12.35;;;2.60;;
17173;SDS011;8702;48.130;-1.696;2024-02-23T01:26:32;9.00;;;2.47;;
17173;SDS011;8702;48.130;-1.696;2024-02-23T01:28:59;8.50;;;2.40;;
17173;SDS011;8702;48.130;-1.696;2024-02-23T01:31:27;12.88;;;2.95;;
17173;SDS011;8702;48.130;-1.696;2024-02-23T01:33:54;8.88;;;2.67;;
17173;SDS011;8702;48.130;-1.696;2024-02-23T01:36:21;8.80;;;2.40;;
17173;SDS011;8702;48.130;-1.696;2024-02-23T01:38:48;10.05;;;2.45;;
17173;SDS011;8702;48.130;-1.696;2024-02-23T01:41:15;8.32;;;2.40;;
17173;SDS011;8702;48.130;-1.696;2024-02-23T01:43:44;8.75;;;2.38;;
17173;SDS011;8702;48.130;-1.696;2024-02-23T01:46:11;9.30;;;2.67;;
17173;SDS011;8702;48.130;-1.696;2024-02-23T01:48:41;12.55;;;2.70;;
17173;SDS011;8702;48.130;-1.696;2024-02-23T01:51:09;9.80;;;2.60;;
17173;SDS011;8702;48.130;-1.696;2024-02-23T01:53:36;8.98;;;2.50;;
17173;SDS011;8702;48.130;-1.696;2024-02-23T01:56:03;10.65;;;2.55;;
17173;SDS011;8702;48.130;-1.696;2024-02-23T01:58:31;6.80;;;2.45;;
17173;SDS011;8702;48.130;-1.696;2024-02-23T02:01:01;9.10;;;2.40;;
17173;SDS011;8702;48.130;-1.696;2024-02-23T02:03:30;11.98;;;2.67;;
17173;SDS011;8702;48.130;-1.696;2024-02-23T02:05:57;9.95;;;2.40;;
17173;SDS011;8702;48.130;-1.696;2024-02-23T02:08:25;10.68;;;2.50;;
17173;SDS011;8702;48.130;-1.696;2024-02-23T02:10:52;8.23;;;2.47;;
17173;SDS011;8702;48.130;-1.696;2024-02-23T02:13:19;9.57;;;2.35;;
17173;SDS011;8702;48.130;-1.696;2024-02-23T02:15:46;12.40;;;2.67;;
17173;SDS011;8702;48.130;-1.696;2024-02-23T02:18:15;10.73;;;2.40;;
17173;SDS011;8702;48.130;-1.696;2024-02-23T02:20:46;8.35;;;2.58;;
17173;SDS011;8702;48.130;-1.696;2024-02-23T02:23:17;10.82;;;2.53;;
17173;SDS011;8702;48.130;-1.696;2024-02-23T02:25:45;8.07;;;2.20;;
17173;SDS011;8702;48.130;-1.696;2024-02-23T02:28:12;9.40;;;2.40;;
17173;SDS011;8702;48.130;-1.696;2024-02-23T02:30:39;8.63;;;2.20;;
17173;SDS011;8702;48.130;-1.696;2024-02-23T02:33:06;7.68;;;2.20;;
17173;SDS011;8702;48.130;-1.696;2024-02-23T02:35:34;9.27;;;2.53;;
17173;SDS011;8702;48.130;-1.696;2024-02-23T02:38:01;7.57;;;2.20;;
17173;SDS011;8702;48.130;-1.696;2024-02-23T02:40:29;10.52;;;2.35;;
17173;SDS011;8702;48.130;-1.696;2024-02-23T02:42:56;11.45;;;2.10;;
17173;SDS011;8702;48.130;-1.696;2024-02-23T02:45:24;10.50;;;2.10;;
17173;SDS011;8702;48.130;-1.696;2024-02-23T02:47:51;10.82;;;2.40;;
17173;SDS011;8702;48.130;-1.696;2024-02-23T02:50:18;10.23;;;2.37;;
17173;SDS011;8702;48.130;-1.696;2024-02-23T02:52:47;7.20;;;2.17;;
17173;SDS011;8702;48.130;-1.696;2024-02-23T02:55:15;8.23;;;2.20;;
17173;SDS011;8702;48.130;-1.696;2024-02-23T02:57:43;11.32;;;2.45;;
17173;SDS011;8702;48.130;-1.696;2024-02-23T03:00:10;8.88;;;2.50;;
17173;SDS011;8702;48.130;-1.696;2024-02-23T03:02:38;6.45;;;2.20;;
17173;SDS011;8702;48.130;-1.696;2024-02-23T03:05:05;8.07;;;2.22;;
17173;SDS011;8702;48.130;-1.696;2024-02-23T03:07:32;10.60;;;2.28;;
17173;SDS011;8702;48.130;-1.696;2024-02-23T03:10:01;9.48;;;2.25;;
17173;SDS011;8702;48.130;-1.696;2024-02-23T03:12:28;9.45;;;2.22;;
17173;SDS011;8702;48.130;-1.696;2024-02-23T03:14:55;12.50;;;2.22;;
17173;SDS011;8702;48.130;-1.696;2024-02-23T03:17:22;9.32;;;2.40;;
17173;SDS011;8702;48.130;-1.696;2024-02-23T03:19:50;12.05;;;2.53;;
17173;SDS011;8702;48.130;-1.696;2024-02-23T03:22:17;8.82;;;2.28;;
17173;SDS011;8702;48.130;-1.696;2024-02-23T03:24:44;7.97;;;2.25;;
17173;SDS011;8702;48.130;-1.696;2024-02-23T03:27:12;9.80;;;2.20;;
17173;SDS011;8702;48.130;-1.696;2024-02-23T03:29:39;12.43;;;2.30;;
17173;SDS011;8702;48.130;-1.696;2024-02-23T03:32:07;8.82;;;2.08;;
17173;SDS011;8702;48.130;-1.696;2024-02-23T03:34:35;6.97;;;2.13;;
17173;SDS011;8702;48.130;-1.696;2024-02-23T03:37:02;7.68;;;2.13;;
17173;SDS011;8702;48.130;-1.696;2024-02-23T03:39:29;12.02;;;1.98;;
17173;SDS011;8702;48.130;-1.696;2024-02-23T03:41:57;8.43;;;2.10;;
17173;SDS011;8702;48.130;-1.696;2024-02-23T03:44:26;7.65;;;1.85;;
17173;SDS011;8702;48.130;-1.696;2024-02-23T03:46:53;6.35;;;1.80;;
17173;SDS011;8702;48.130;-1.696;2024-02-23T03:49:20;6.80;;;1.88;;
17173;SDS011;8702;48.130;-1.696;2024-02-23T03:51:47;7.95;;;1.83;;
17173;SDS011;8702;48.130;-1.696;2024-02-23T03:54:14;6.53;;;1.88;;
17173;SDS011;8702;48.130;-1.696;2024-02-23T03:56:41;6.53;;;1.77;;
17173;SDS011;8702;48.130;-1.696;2024-02-23T03:59:09;6.30;;;1.70;;
17173;SDS011;8702;48.130;-1.696;2024-02-23T04:01:38;8.88;;;1.58;;
17173;SDS011;8702;48.130;-1.696;2024-02-23T04:04:05;6.45;;;1.92;;
17173;SDS011;8702;48.130;-1.696;2024-02-23T04:06:33;7.93;;;2.05;;
17173;SDS011;8702;48.130;-1.696;2024-02-23T04:09:00;6.03;;;1.80;;
17173;SDS011;8702;48.130;-1.696;2024-02-23T04:11:29;5.97;;;1.65;;
17173;SDS011;8702;48.130;-1.696;2024-02-23T04:13:57;5.03;;;1.35;;
17173;SDS011;8702;48.130;-1.696;2024-02-23T04:16:25;5.10;;;1.67;;
17173;SDS011;8702;48.130;-1.696;2024-02-23T04:18:54;6.43;;;1.50;;
17173;SDS011;8702;48.130;-1.696;2024-02-23T04:21:22;5.82;;;1.65;;
17173;SDS011;8702;48.130;-1.696;2024-02-23T04:23:49;6.97;;;1.93;;
17173;SDS011;8702;48.130;-1.696;2024-02-23T04:26:16;4.90;;;1.40;;
17173;SDS011;8702;48.130;-1.696;2024-02-23T04:28:43;5.67;;;1.83;;
17173;SDS011;8702;48.130;-1.696;2024-02-23T04:31:10;5.38;;;1.80;;
17173;SDS011;8702;48.130;-1.696;2024-02-23T04:33:38;6.75;;;2.17;;
17173;SDS011;8702;48.130;-1.696;2024-02-23T04:36:06;8.32;;;1.98;;
17173;SDS011;8702;48.130;-1.696;2024-02-23T04:38:34;6.97;;;2.10;;
17173;SDS011;8702;48.130;-1.696;2024-02-23T04:41:02;8.38;;;1.88;;
17173;SDS011;8702;48.130;-1.696;2024-02-23T04:43:30;6.75;;;2.30;;
17173;SDS011;8702;48.130;-1.696;2024-02-23T04:45:57;5.57;;;1.58;;
17173;SDS011;8702;48.130;-1.696;2024-02-23T04:48:24;9.40;;;2.22;;
17173;SDS011;8702;48.130;-1.696;2024-02-23T04:50:51;7.97;;;1.88;;
17173;SDS011;8702;48.130;-1.696;2024-02-23T04:53:20;8.10;;;2.00;;
17173;SDS011;8702;48.130;-1.696;2024-02-23T04:55:47;10.57;;;2.10;;
17173;SDS011;8702;48.130;-1.696;2024-02-23T04:58:14;6.88;;;1.90;;
17173;SDS011;8702;48.130;-1.696;2024-02-23T05:00:42;7.75;;;2.15;;
17173;SDS011;8702;48.130;-1.696;2024-02-23T05:03:09;6.70;;;2.10;;
17173;SDS011;8702;48.130;-1.696;2024-02-23T05:05:36;9.80;;;2.38;;
17173;SDS011;8702;48.130;-1.696;2024-02-23T05:08:03;7.30;;;1.75;;
17173;SDS011;8702;48.130;-1.696;2024-02-23T05:10:32;7.68;;;1.80;;
17173;SDS011;8702;48.130;-1.696;2024-02-23T05:12:59;8.32;;;1.70;;
17173;SDS011;8702;48.130;-1.696;2024-02-23T05:15:26;6.57;;;1.63;;
17173;SDS011;8702;48.130;-1.696;2024-02-23T05:17:53;7.53;;;1.60;;
17173;SDS011;8702;48.130;-1.696;2024-02-23T05:20:20;4.88;;;1.60;;
17173;SDS011;8702;48.130;-1.696;2024-02-23T05:22:47;6.25;;;1.80;;
17173;SDS011;8702;48.130;-1.696;2024-02-23T05:25:14;5.17;;;1.50;;
17173;SDS011;8702;48.130;-1.696;2024-02-23T05:27:43;5.45;;;1.58;;
17173;SDS011;8702;48.130;-1.696;2024-02-23T05:30:11;5.25;;;1.58;;
17173;SDS011;8702;48.130;-1.696;2024-02-23T05:32:38;5.63;;;1.48;;
17173;SDS011;8702;48.130;-1.696;2024-02-23T05:35:05;3.65;;;1.38;;
17173;SDS011;8702;48.130;-1.696;2024-02-23T05:37:33;6.13;;;1.60;;
17173;SDS011;8702;48.130;-1.696;2024-02-23T05:40:00;5.35;;;1.60;;
17173;SDS011;8702;48.130;-1.696;2024-02-23T05:42:31;6.32;;;1.50;;
17173;SDS011;8702;48.130;-1.696;2024-02-23T05:45:00;4.50;;;1.58;;
17173;SDS011;8702;48.130;-1.696;2024-02-23T05:47:29;6.78;;;1.67;;
17173;SDS011;8702;48.130;-1.696;2024-02-23T05:49:56;6.18;;;1.70;;
17173;SDS011;8702;48.130;-1.696;2024-02-23T05:52:23;5.28;;;1.63;;
17173;SDS011;8702;48.130;-1.696;2024-02-23T05:54:50;7.80;;;1.95;;
17173;SDS011;8702;48.130;-1.696;2024-02-23T05:57:21;6.63;;;1.73;;
17173;SDS011;8702;48.130;-1.696;2024-02-23T05:59:48;7.53;;;2.10;;
17173;SDS011;8702;48.130;-1.696;2024-02-23T06:02:16;8.05;;;1.80;;
17173;SDS011;8702;48.130;-1.696;2024-02-23T06:04:43;8.77;;;1.93;;
17173;SDS011;8702;48.130;-1.696;2024-02-23T06:07:10;7.55;;;2.00;;
17173;SDS011;8702;48.130;-1.696;2024-02-23T06:09:37;7.38;;;1.77;;
17173;SDS011;8702;48.130;-1.696;2024-02-23T06:12:05;8.07;;;2.23;;
17173;SDS011;8702;48.130;-1.696;2024-02-23T06:14:32;5.87;;;1.80;;
17173;SDS011;8702;48.130;-1.696;2024-02-23T06:16:59;8.80;;;2.17;;
17173;SDS011;8702;48.130;-1.696;2024-02-23T06:19:29;7.68;;;2.10;;
17173;SDS011;8702;48.130;-1.696;2024-02-23T06:21:56;8.80;;;2.30;;
17173;SDS011;8702;48.130;-1.696;2024-02-23T06:24:23;7.95;;;2.10;;
17173;SDS011;8702;48.130;-1.696;2024-02-23T06:26:50;7.60;;;2.20;;
17173;SDS011;8702;48.130;-1.696;2024-02-23T06:29:17;6.20;;;1.98;;
17173;SDS011;8702;48.130;-1.696;2024-02-23T06:31:44;4.53;;;1.77;;
17173;SDS011;8702;48.130;-1.696;2024-02-23T06:34:14;6.57;;;1.80;;
17173;SDS011;8702;48.130;-1.696;2024-02-23T06:36:42;5.85;;;1.88;;
17173;SDS011;8702;48.130;-1.696;2024-02-23T06:39:09;5.65;;;1.95;;
17173;SDS011;8702;48.130;-1.696;2024-02-23T06:41:37;4.22;;;1.50;;
17173;SDS011;8702;48.130;-1.696;2024-02-23T06:44:05;4.65;;;1.40;;
17173;SDS011;8702;48.130;-1.696;2024-02-23T06:46:32;4.53;;;1.63;;
17173;SDS011;8702;48.130;-1.696;2024-02-23T06:48:59;3.42;;;1.30;;
17173;SDS011;8702;48.130;-1.696;2024-02-23T06:51:26;3.67;;;1.20;;
17173;SDS011;8702;48.130;-1.696;2024-02-23T06:53:54;2.80;;;1.13;;
17173;SDS011;8702;48.130;-1.696;2024-02-23T06:56:21;4.80;;;1.50;;
17173;SDS011;8702;48.130;-1.696;2024-02-23T06:58:49;3.10;;;1.23;;
17173;SDS011;8702;48.130;-1.696;2024-02-23T07:01:16;4.97;;;1.13;;
17173;SDS011;8702;48.130;-1.696;2024-02-23T07:03:43;3.53;;;1.23;;
17173;SDS011;8702;48.130;-1.696;2024-02-23T07:06:10;3.55;;;1.10;;
17173;SDS011;8702;48.130;-1.696;2024-02-23T07:08:37;3.20;;;1.30;;
17173;SDS011;8702;48.130;-1.696;2024-02-23T07:11:05;2.88;;;1.17;;
17173;SDS011;8702;48.130;-1.696;2024-02-23T07:13:33;3.78;;;1.50;;
17173;SDS011;8702;48.130;-1.696;2024-02-23T07:16:00;3.97;;;1.40;;
17173;SDS011;8702;48.130;-1.696;2024-02-23T07:18:28;2.92;;;1.20;;
17173;SDS011;8702;48.130;-1.696;2024-02-23T07:20:55;4.78;;;1.40;;
17173;SDS011;8702;48.130;-1.696;2024-02-23T07:23:22;3.88;;;1.27;;
17173;SDS011;8702;48.130;-1.696;2024-02-23T07:25:49;4.85;;;1.30;;
17173;SDS011;8702;48.130;-1.696;2024-02-23T07:28:18;3.08;;;1.15;;
17173;SDS011;8702;48.130;-1.696;2024-02-23T07:30:47;3.63;;;1.30;;
17173;SDS011;8702;48.130;-1.696;2024-02-23T07:33:14;2.58;;;1.10;;
17173;SDS011;8702;48.130;-1.696;2024-02-23T07:35:41;5.10;;;1.57;;
17173;SDS011;8702;48.130;-1.696;2024-02-23T07:38:08;2.83;;;1.30;;
17173;SDS011;8702;48.130;-1.696;2024-02-23T07:40:36;2.95;;;1.20;;
17173;SDS011;8702;48.130;-1.696;2024-02-23T07:43:04;3.77;;;1.37;;
17173;SDS011;8702;48.130;-1.696;2024-02-23T07:45:33;7.05;;;1.40;;
17173;SDS011;8702;48.130;-1.696;2024-02-23T07:48:00;4.82;;;1.63;;
17173;SDS011;8702;48.130;-1.696;2024-02-23T07:50:27;3.88;;;1.20;;
17173;SDS011;8702;48.130;-1.696;2024-02-23T07:52:54;3.83;;;1.40;;
17173;SDS011;8702;48.130;-1.696;2024-02-23T07:55:22;5.40;;;1.48;;
17173;SDS011;8702;48.130;-1.696;2024-02-23T07:57:49;5.07;;;1.58;;
17173;SDS011;8702;48.130;-1.696;2024-02-23T08:00:16;4.40;;;1.30;;
17173;SDS011;8702;48.130;-1.696;2024-02-23T08:02:45;9.93;;;1.60;;
17173;SDS011;8702;48.130;-1.696;2024-02-23T08:05:12;5.97;;;1.58;;
17173;SDS011;8702;48.130;-1.696;2024-02-23T08:07:39;7.07;;;1.50;;
17173;SDS011;8702;48.130;-1.696;2024-02-23T08:10:06;5.80;;;1.38;;
17173;SDS011;8702;48.130;-1.696;2024-02-23T08:12:34;5.88;;;1.60;;
17173;SDS011;8702;48.130;-1.696;2024-02-23T08:15:01;6.35;;;1.48;;
17173;SDS011;8702;48.130;-1.696;2024-02-23T08:17:28;6.47;;;1.70;;
17173;SDS011;8702;48.130;-1.696;2024-02-23T08:19:57;6.65;;;1.95;;
17173;SDS011;8702;48.130;-1.696;2024-02-23T08:22:24;6.38;;;1.70;;
17173;SDS011;8702;48.130;-1.696;2024-02-23T08:24:51;3.83;;;1.40;;
17173;SDS011;8702;48.130;-1.696;2024-02-23T08:27:18;4.80;;;1.45;;
17173;SDS011;8702;48.130;-1.696;2024-02-23T08:29:45;6.95;;;1.60;;
17173;SDS011;8702;48.130;-1.696;2024-02-23T08:32:12;7.57;;;1.83;;
17173;SDS011;8702;48.130;-1.696;2024-02-23T08:34:39;4.95;;;1.50;;
17173;SDS011;8702;48.130;-1.696;2024-02-23T08:37:08;6.35;;;1.50;;
17173;SDS011;8702;48.130;-1.696;2024-02-23T08:39:35;3.30;;;1.33;;
17173;SDS011;8702;48.130;-1.696;2024-02-23T08:42:03;4.25;;;1.42;;
17173;SDS011;8702;48.130;-1.696;2024-02-23T08:44:30;3.85;;;1.30;;
17173;SDS011;8702;48.130;-1.696;2024-02-23T08:46:57;4.53;;;1.40;;
17173;SDS011;8702;48.130;-1.696;2024-02-23T08:49:24;6.50;;;1.90;;
17173;SDS011;8702;48.130;-1.696;2024-02-23T08:51:51;5.97;;;1.53;;
17173;SDS011;8702;48.130;-1.696;2024-02-23T08:54:20;3.75;;;1.50;;
17173;SDS011;8702;48.130;-1.696;2024-02-23T08:56:47;4.47;;;1.47;;
17173;SDS011;8702;48.130;-1.696;2024-02-23T08:59:14;4.35;;;1.25;;
17173;SDS011;8702;48.130;-1.696;2024-02-23T09:01:41;6.20;;;1.58;;
17173;SDS011;8702;48.130;-1.696;2024-02-23T09:04:09;6.10;;;1.63;;
17173;SDS011;8702;48.130;-1.696;2024-02-23T09:06:36;4.65;;;1.60;;
17173;SDS011;8702;48.130;-1.696;2024-02-23T09:09:03;4.63;;;1.65;;
17173;SDS011;8702;48.130;-1.696;2024-02-23T09:11:32;7.10;;;1.65;;
17173;SDS011;8702;48.130;-1.696;2024-02-23T09:13:59;4.72;;;1.20;;
17173;SDS011;8702;48.130;-1.696;2024-02-23T09:16:26;7.18;;;1.67;;
17173;SDS011;8702;48.130;-1.696;2024-02-23T09:18:53;4.15;;;1.35;;
17173;SDS011;8702;48.130;-1.696;2024-02-23T09:21:20;5.00;;;1.53;;
17173;SDS011;8702;48.130;-1.696;2024-02-23T09:23:47;4.13;;;1.10;;
17173;SDS011;8702;48.130;-1.696;2024-02-23T09:26:15;4.15;;;1.35;;
17173;SDS011;8702;48.130;-1.696;2024-02-23T09:28:44;5.03;;;1.30;;
17173;SDS011;8702;48.130;-1.696;2024-02-23T09:31:11;4.80;;;1.50;;
17173;SDS011;8702;48.130;-1.696;2024-02-23T09:33:38;5.43;;;1.67;;
17173;SDS011;8702;48.130;-1.696;2024-02-23T09:36:05;6.05;;;1.50;;
17173;SDS011;8702;48.130;-1.696;2024-02-23T09:38:33;6.85;;;1.40;;
17173;SDS011;8702;48.130;-1.696;2024-02-23T09:41:01;4.75;;;1.50;;
17173;SDS011;8702;48.130;-1.696;2024-02-23T09:43:28;5.47;;;1.67;;
17173;SDS011;8702;48.130;-1.696;2024-02-23T09:45:58;3.38;;;1.33;;
17173;SDS011;8702;48.130;-1.696;2024-02-23T09:48:26;6.67;;;1.80;;
17173;SDS011;8702;48.130;-1.696;2024-02-23T09:50:53;7.07;;;1.70;;
17173;SDS011;8702;48.130;-1.696;2024-02-23T09:53:21;4.53;;;1.52;;
17173;SDS011;8702;48.130;-1.696;2024-02-23T09:55:49;5.53;;;1.60;;
17173;SDS011;8702;48.130;-1.696;2024-02-23T09:58:17;6.37;;;1.80;;
17173;SDS011;8702;48.130;-1.696;2024-02-23T10:00:44;5.38;;;1.80;;
17173;SDS011;8702;48.130;-1.696;2024-02-23T10:03:13;6.75;;;1.70;;
17173;SDS011;8702;48.130;-1.696;2024-02-23T10:05:40;5.90;;;1.70;;
17173;SDS011;8702;48.130;-1.696;2024-02-23T10:08:08;7.87;;;1.97;;
17173;SDS011;8702;48.130;-1.696;2024-02-23T10:10:35;4.40;;;1.52;;
17173;SDS011;8702;48.130;-1.696;2024-02-23T10:13:02;4.80;;;1.52;;
17173;SDS011;8702;48.130;-1.696;2024-02-23T10:15:30;6.78;;;1.77;;
17173;SDS011;8702;48.130;-1.696;2024-02-23T10:17:58;6.03;;;1.80;;
17173;SDS011;8702;48.130;-1.696;2024-02-23T10:20:26;6.17;;;1.90;;
17173;SDS011;8702;48.130;-1.696;2024-02-23T10:22:53;8.80;;;1.75;;
17173;SDS011;8702;48.130;-1.696;2024-02-23T10:25:21;4.95;;;1.45;;
17173;SDS011;8702;48.130;-1.696;2024-02-23T10:27:48;7.50;;;1.83;;
17173;SDS011;8702;48.130;-1.696;2024-02-23T10:30:15;4.93;;;1.60;;
17173;SDS011;8702;48.130;-1.696;2024-02-23T10:32:42;8.13;;;1.80;;
17173;SDS011;8702;48.130;-1.696;2024-02-23T10:35:11;4.23;;;1.40;;
17173;SDS011;8702;48.130;-1.696;2024-02-23T10:37:43;5.40;;;1.60;;
17173;SDS011;8702;48.130;-1.696;2024-02-23T10:40:11;4.20;;;1.50;;
17173;SDS011;8702;48.130;-1.696;2024-02-23T10:42:38;4.00;;;1.27;;
17173;SDS011;8702;48.130;-1.696;2024-02-23T10:45:07;6.35;;;1.77;;
17173;SDS011;8702;48.130;-1.696;2024-02-23T10:47:34;5.00;;;1.52;;
17173;SDS011;8702;48.130;-1.696;2024-02-23T10:50:01;4.45;;;1.42;;
17173;SDS011;8702;48.130;-1.696;2024-02-23T10:52:29;3.40;;;1.33;;
17173;SDS011;8702;48.130;-1.696;2024-02-23T10:54:59;4.35;;;1.30;;
17173;SDS011;8702;48.130;-1.696;2024-02-23T10:57:27;4.10;;;1.33;;
17173;SDS011;8702;48.130;-1.696;2024-02-23T10:59:54;4.40;;;1.33;;
17173;SDS011;8702;48.130;-1.696;2024-02-23T11:02:21;4.20;;;1.50;;
17173;SDS011;8702;48.130;-1.696;2024-02-23T11:04:49;4.60;;;1.58;;
17173;SDS011;8702;48.130;-1.696;2024-02-23T11:07:18;6.50;;;1.83;;
17173;SDS011;8702;48.130;-1.696;2024-02-23T11:09:48;5.97;;;1.60;;
17173;SDS011;8702;48.130;-1.696;2024-02-23T11:12:23;4.68;;;1.40;;
17173;SDS011;8702;48.130;-1.696;2024-02-23T11:14:51;4.38;;;1.63;;
17173;SDS011;8702;48.130;-1.696;2024-02-23T11:17:18;6.70;;;1.70;;
17173;SDS011;8702;48.130;-1.696;2024-02-23T11:19:46;5.18;;;1.80;;
17173;SDS011;8702;48.130;-1.696;2024-02-23T11:22:13;3.75;;;1.70;;
17173;SDS011;8702;48.130;-1.696;2024-02-23T11:24:42;3.58;;;1.52;;
17173;SDS011;8702;48.130;-1.696;2024-02-23T11:27:13;5.45;;;1.80;;
17173;SDS011;8702;48.130;-1.696;2024-02-23T11:29:44;4.63;;;1.50;;
17173;SDS011;8702;48.130;-1.696;2024-02-23T11:32:12;4.03;;;1.60;;
17173;SDS011;8702;48.130;-1.696;2024-02-23T11:34:39;5.35;;;1.63;;
17173;SDS011;8702;48.130;-1.696;2024-02-23T11:37:09;5.22;;;1.65;;
17173;SDS011;8702;48.130;-1.696;2024-02-23T11:39:37;5.03;;;1.63;;
17173;SDS011;8702;48.130;-1.696;2024-02-23T11:42:04;3.28;;;1.40;;
17173;SDS011;8702;48.130;-1.696;2024-02-23T11:44:31;13.23;;;4.93;;
17173;SDS011;8702;48.130;-1.696;2024-02-23T11:47:00;5.88;;;1.92;;
17173;SDS011;8702;48.130;-1.696;2024-02-23T11:49:27;3.47;;;1.50;;
17173;SDS011;8702;48.130;-1.696;2024-02-23T11:51:55;5.82;;;2.10;;
17173;SDS011;8702;48.130;-1.696;2024-02-23T11:54:22;6.65;;;1.90;;
17173;SDS011;8702;48.130;-1.696;2024-02-23T11:56:50;4.38;;;1.80;;
17173;SDS011;8702;48.130;-1.696;2024-02-23T11:59:17;4.60;;;1.73;;
17173;SDS011;8702;48.130;-1.696;2024-02-23T12:01:45;4.43;;;1.50;;
17173;SDS011;8702;48.130;-1.696;2024-02-23T12:04:15;4.75;;;1.67;;
17173;SDS011;8702;48.130;-1.696;2024-02-23T12:06:41;7.13;;;1.83;;
17173;SDS011;8702;48.130;-1.696;2024-02-23T12:09:08;5.18;;;1.98;;
17173;SDS011;8702;48.130;-1.696;2024-02-23T12:11:36;5.32;;;1.77;;
17173;SDS011;8702;48.130;-1.696;2024-02-23T12:14:03;4.55;;;1.67;;
17173;SDS011;8702;48.130;-1.696;2024-02-23T12:16:32;5.10;;;1.73;;
17173;SDS011;8702;48.130;-1.696;2024-02-23T12:19:00;4.57;;;1.73;;
17173;SDS011;8702;48.130;-1.696;2024-02-23T12:21:29;4.72;;;1.65;;
17173;SDS011;8702;48.130;-1.696;2024-02-23T12:23:56;6.00;;;1.80;;
17173;SDS011;8702;48.130;-1.696;2024-02-23T12:26:24;5.75;;;1.80;;
17173;SDS011;8702;48.130;-1.696;2024-02-23T12:28:51;8.10;;;1.80;;
17173;SDS011;8702;48.130;-1.696;2024-02-23T12:31:23;4.85;;;1.52;;
17173;SDS011;8702;48.130;-1.696;2024-02-23T12:33:51;4.70;;;1.63;;
17173;SDS011;8702;48.130;-1.696;2024-02-23T12:36:19;4.35;;;1.52;;
17173;SDS011;8702;48.130;-1.696;2024-02-23T12:38:47;6.05;;;1.60;;
17173;SDS011;8702;48.130;-1.696;2024-02-23T12:41:14;6.40;;;1.80;;
17173;SDS011;8702;48.130;-1.696;2024-02-23T12:43:42;3.85;;;1.70;;
17173;SDS011;8702;48.130;-1.696;2024-02-23T12:46:09;4.70;;;1.80;;
17173;SDS011;8702;48.130;-1.696;2024-02-23T12:48:39;5.35;;;1.52;;
17173;SDS011;8702;48.130;-1.696;2024-02-23T12:51:07;10.48;;;1.92;;
17173;SDS011;8702;48.130;-1.696;2024-02-23T12:53:35;6.85;;;2.03;;
17173;SDS011;8702;48.130;-1.696;2024-02-23T12:56:04;5.13;;;1.73;;
17173;SDS011;8702;48.130;-1.696;2024-02-23T12:58:33;5.47;;;1.73;;
17173;SDS011;8702;48.130;-1.696;2024-02-23T13:01:00;5.25;;;1.77;;
17173;SDS011;8702;48.130;-1.696;2024-02-23T13:03:28;4.68;;;1.40;;
17173;SDS011;8702;48.130;-1.696;2024-02-23T13:05:55;4.28;;;1.52;;
17173;SDS011;8702;48.130;-1.696;2024-02-23T13:08:23;5.35;;;1.67;;
17173;SDS011;8702;48.130;-1.696;2024-02-23T13:10:51;5.22;;;1.55;;
17173;SDS011;8702;48.130;-1.696;2024-02-23T13:13:20;5.43;;;1.90;;
17173;SDS011;8702;48.130;-1.696;2024-02-23T13:15:47;4.20;;;1.48;;
17173;SDS011;8702;48.130;-1.696;2024-02-23T13:18:14;5.13;;;1.92;;
17173;SDS011;8702;48.130;-1.696;2024-02-23T13:20:42;5.37;;;1.40;;
17173;SDS011;8702;48.130;-1.696;2024-02-23T13:23:09;7.97;;;2.00;;
17173;SDS011;8702;48.130;-1.696;2024-02-23T13:25:37;5.65;;;1.65;;
17173;SDS011;8702;48.130;-1.696;2024-02-23T13:28:04;6.93;;;1.88;;
17173;SDS011;8702;48.130;-1.696;2024-02-23T13:30:33;4.60;;;1.50;;
17173;SDS011;8702;48.130;-1.696;2024-02-23T13:33:01;5.90;;;1.60;;
17173;SDS011;8702;48.130;-1.696;2024-02-23T13:35:28;5.18;;;1.50;;
17173;SDS011;8702;48.130;-1.696;2024-02-23T13:37:55;4.38;;;1.88;;
17173;SDS011;8702;48.130;-1.696;2024-02-23T13:40:23;5.63;;;1.92;;
17173;SDS011;8702;48.130;-1.696;2024-02-23T13:42:50;5.38;;;1.75;;
17173;SDS011;8702;48.130;-1.696;2024-02-23T13:45:18;6.15;;;2.10;;
17173;SDS011;8702;48.130;-1.696;2024-02-23T13:47:56;10.60;;;2.00;;
17173;SDS011;8702;48.130;-1.696;2024-02-23T13:50:24;8.15;;;2.00;;
17173;SDS011;8702;48.130;-1.696;2024-02-23T13:52:51;6.60;;;1.95;;
17173;SDS011;8702;48.130;-1.696;2024-02-23T13:55:18;8.18;;;2.08;;
17173;SDS011;8702;48.130;-1.696;2024-02-23T13:57:46;6.72;;;2.05;;
17173;SDS011;8702;48.130;-1.696;2024-02-23T14:00:14;8.98;;;2.35;;
17173;SDS011;8702;48.130;-1.696;2024-02-23T14:02:42;7.43;;;1.90;;
17173;SDS011;8702;48.130;-1.696;2024-02-23T14:05:11;8.82;;;2.20;;
17173;SDS011;8702;48.130;-1.696;2024-02-23T14:07:38;7.38;;;2.05;;
17173;SDS011;8702;48.130;-1.696;2024-02-23T14:10:06;6.88;;;2.45;;
17173;SDS011;8702;48.130;-1.696;2024-02-23T14:12:33;8.05;;;2.17;;
17173;SDS011;8702;48.130;-1.696;2024-02-23T14:15:00;7.45;;;2.20;;
17173;SDS011;8702;48.130;-1.696;2024-02-23T14:17:28;6.03;;;2.10;;
17173;SDS011;8702;48.130;-1.696;2024-02-23T14:19:55;6.53;;;2.00;;
17173;SDS011;8702;48.130;-1.696;2024-02-23T14:22:23;5.15;;;1.45;;
17173;SDS011;8702;48.130;-1.696;2024-02-23T14:24:52;4.53;;;1.60;;
17173;SDS011;8702;48.130;-1.696;2024-02-23T14:27:19;3.13;;;1.23;;
17173;SDS011;8702;48.130;-1.696;2024-02-23T14:29:47;3.13;;;1.13;;
17173;SDS011;8702;48.130;-1.696;2024-02-23T14:32:15;1.73;;;0.80;;
17173;SDS011;8702;48.130;-1.696;2024-02-23T14:34:42;1.40;;;0.90;;
17173;SDS011;8702;48.130;-1.696;2024-02-23T14:37:10;1.33;;;0.85;;
17173;SDS011;8702;48.130;-1.696;2024-02-23T14:39:38;1.35;;;0.80;;
17173;SDS011;8702;48.130;-1.696;2024-02-23T14:42:06;1.08;;;0.80;;
17173;SDS011;8702;48.130;-1.696;2024-02-23T14:44:34;1.30;;;0.70;;
17173;SDS011;8702;48.130;-1.696;2024-02-23T14:47:01;1.92;;;0.77;;